Time;durP1;ratioP1;P1;durP2;ratioP2;P2;SDS_P1;SDS_P2;PMS_P1;PMS_P2;Temp;Humidity;BMP_temperature;BMP_pressure;BME280_temperature;BME280_humidity;BME280_pressure;Samples;Min_cycle;Max_cycle;Signal;HPM_P1;HPM_P2
2022/01/04 00:01:47;;;;;;;3.17;2.57;;;10.80;89.80;;;;;;4952600;28;20467;-48
2022/01/04 00:04:15;;;;;;;6.07;2.97;;;10.80;89.80;;;;;;4953226;28;20882;-49
2022/01/04 00:06:44;;;;;;;4.53;2.37;;;10.80;89.80;;;;;;4969509;28;20885;-49
2022/01/04 00:09:13;;;;;;;5.27;2.87;;;10.70;89.80;;;;;;4958266;28;20514;-48
2022/01/04 00:11:57;;;;;;;2.83;2.60;;;10.70;89.80;;;;;;4955974;28;20856;-49
2022/01/04 00:14:24;;;;;;;3.60;2.50;;;10.80;89.80;;;;;;4960383;28;20809;-49
2022/01/04 00:16:55;;;;;;;2.47;2.30;;;10.70;89.80;;;;;;4955768;28;20465;-49
2022/01/04 00:19:22;;;;;;;3.50;2.57;;;10.70;89.80;;;;;;4953839;28;20498;-49
2022/01/04 00:21:50;;;;;;;6.93;2.83;;;10.70;89.80;;;;;;4955127;28;20458;-49
2022/01/04 00:24:16;;;;;;;4.40;2.80;;;10.70;89.80;;;;;;4967232;28;21100;-48
2022/01/04 00:26:43;;;;;;;2.87;2.67;;;10.70;89.80;;;;;;4950798;28;20478;-48
2022/01/04 00:29:14;;;;;;;4.70;3.13;;;10.70;89.80;;;;;;4952897;28;20534;-49
2022/01/04 00:31:41;;;;;;;2.40;2.00;;;10.70;89.80;;;;;;4954900;28;20594;-49
2022/01/04 00:34:08;;;;;;;3.13;2.73;;;10.70;89.80;;;;;;4956450;28;20549;-48
2022/01/04 00:36:36;;;;;;;3.23;2.93;;;10.70;89.80;;;;;;4956698;28;20488;-48
2022/01/04 00:39:03;;;;;;;4.67;3.17;;;10.60;89.80;;;;;;4953341;28;20851;-49
2022/01/04 00:41:29;;;;;;;2.90;2.70;;;10.60;89.80;;;;;;4949106;28;20535;-48
2022/01/04 00:43:56;;;;;;;4.57;3.00;;;10.60;89.80;;;;;;4969981;28;20550;-49
2022/01/04 00:46:23;;;;;;;3.67;2.93;;;10.60;89.80;;;;;;4954050;28;20459;-48
2022/01/04 00:51:43;;;;;;;5.30;3.43;;;10.70;89.80;;;;;;4952236;28;20590;-48
2022/01/04 00:54:13;;;;;;;3.23;2.87;;;10.60;89.80;;;;;;4957560;28;20466;-48
2022/01/04 00:56:40;;;;;;;4.40;3.07;;;10.60;89.80;;;;;;4953994;28;20468;-48
2022/01/04 00:59:07;;;;;;;5.20;2.90;;;10.60;89.80;;;;;;4963937;28;20491;-48
2022/01/04 01:01:35;;;;;;;3.20;2.90;;;10.60;89.80;;;;;;4954845;28;20467;-48
2022/01/04 01:04:04;;;;;;;4.20;3.43;;;10.60;89.80;;;;;;4951377;28;20473;-48
2022/01/04 01:06:32;;;;;;;2.30;2.03;;;10.60;89.80;;;;;;4951046;28;20466;-49
2022/01/04 01:08:59;;;;;;;3.03;1.80;;;10.60;89.80;;;;;;4952191;28;20459;-48
2022/01/04 01:11:26;;;;;;;1.47;1.37;;;10.60;89.80;;;;;;4953587;28;20463;-48
2022/01/04 01:13:53;;;;;;;1.10;1.10;;;10.70;89.80;;;;;;4953737;28;20500;-48
2022/01/04 01:16:20;;;;;;;1.40;1.30;;;10.70;89.80;;;;;;4951924;28;20471;-48
2022/01/04 01:18:47;;;;;;;1.13;0.93;;;10.70;89.80;;;;;;4953513;28;20583;-48
2022/01/04 01:21:14;;;;;;;1.40;1.30;;;10.70;89.80;;;;;;4953550;28;20459;-48
2022/01/04 01:23:41;;;;;;;1.63;1.30;;;10.70;89.80;;;;;;4959750;28;20475;-49
2022/01/04 01:26:08;;;;;;;1.00;1.00;;;10.70;89.80;;;;;;4957048;28;20683;-49
2022/01/04 01:28:37;;;;;;;1.10;1.10;;;10.70;89.80;;;;;;4954428;28;20471;-49
2022/01/04 01:31:06;;;;;;;1.53;1.00;;;10.70;89.80;;;;;;4971172;28;20464;-49
2022/01/04 01:33:33;;;;;;;1.13;0.97;;;10.80;89.80;;;;;;4955305;28;20517;-49
2022/01/04 01:36:00;;;;;;;0.87;0.87;;;10.80;89.80;;;;;;4956691;28;21080;-49
2022/01/04 01:38:26;;;;;;;1.40;1.30;;;10.80;89.80;;;;;;4946034;28;20493;-48
2022/01/04 01:40:53;;;;;;;1.43;1.33;;;10.80;89.80;;;;;;4934896;28;20502;-48
2022/01/04 01:43:24;;;;;;;1.20;1.10;;;10.80;89.80;;;;;;4968419;28;20656;-48
2022/01/04 01:45:53;;;;;;;1.60;1.00;;;10.80;89.80;;;;;;4954202;28;20490;-48
2022/01/04 01:48:20;;;;;;;2.03;1.10;;;10.80;89.80;;;;;;4959885;28;20490;-48
2022/01/04 01:50:47;;;;;;;1.20;1.10;;;10.80;89.80;;;;;;4954506;28;20459;-48
2022/01/04 01:53:15;;;;;;;0.97;0.70;;;10.80;89.80;;;;;;4952389;28;20463;-49
2022/01/04 01:55:42;;;;;;;1.37;0.80;;;10.80;89.80;;;;;;4954079;28;20469;-48
2022/01/04 01:58:09;;;;;;;1.90;0.70;;;10.80;89.80;;;;;;4953274;28;20732;-48
2022/01/04 02:00:35;;;;;;;0.77;0.70;;;10.90;89.80;;;;;;4953728;28;20979;-49
2022/01/04 02:03:03;;;;;;;1.57;0.70;;;10.80;89.80;;;;;;4954413;28;20506;-48
2022/01/04 02:05:30;;;;;;;2.20;0.87;;;10.90;89.80;;;;;;4956307;28;20791;-48
2022/01/04 02:08:00;;;;;;;0.70;0.70;;;10.80;89.80;;;;;;4957910;28;20463;-48
2022/01/04 02:10:26;;;;;;;0.50;0.50;;;10.80;89.80;;;;;;4974203;28;20867;-49
2022/01/04 02:12:54;;;;;;;4.37;0.87;;;10.80;89.80;;;;;;4957889;28;20463;-48
2022/01/04 02:15:23;;;;;;;3.00;0.80;;;10.80;89.80;;;;;;4952081;28;20571;-49
2022/01/04 02:17:50;;;;;;;1.07;0.60;;;10.80;89.80;;;;;;4963271;28;20977;-48
2022/01/04 02:20:18;;;;;;;1.00;0.90;;;10.80;89.80;;;;;;4963311;28;20447;-48
2022/01/04 02:22:45;;;;;;;0.93;0.80;;;10.80;89.80;;;;;;4972148;28;20479;-48
2022/01/04 02:25:12;;;;;;;1.30;1.20;;;10.80;89.80;;;;;;4969655;28;20452;-48
2022/01/04 02:27:40;;;;;;;1.50;1.20;;;10.80;89.80;;;;;;4975358;28;20929;-48
2022/01/04 02:30:12;;;;;;;1.43;1.33;;;10.80;89.80;;;;;;4973893;28;20454;-48
2022/01/04 02:32:39;;;;;;;1.20;1.10;;;10.90;89.80;;;;;;4960709;28;20482;-49
2022/01/04 02:35:06;;;;;;;1.63;1.53;;;10.80;89.80;;;;;;4957670;28;20454;-48
2022/01/04 02:37:33;;;;;;;1.23;1.13;;;10.80;89.80;;;;;;4956646;28;20493;-49
2022/01/04 02:40:00;;;;;;;3.20;1.40;;;10.80;89.80;;;;;;4971751;28;20494;-49
2022/01/04 02:42:27;;;;;;;1.83;1.60;;;10.80;89.80;;;;;;4961807;28;20584;-49
2022/01/04 02:44:54;;;;;;;1.00;1.00;;;10.80;89.80;;;;;;4955645;28;20474;-49
2022/01/04 02:47:21;;;;;;;1.20;1.10;;;10.90;89.80;;;;;;4957334;28;20451;-48
2022/01/04 02:49:48;;;;;;;1.60;1.50;;;10.90;89.80;;;;;;4950061;28;20460;-49
2022/01/04 02:52:15;;;;;;;1.80;1.70;;;10.80;89.80;;;;;;4956770;28;20467;-49
2022/01/04 02:54:42;;;;;;;1.63;1.53;;;10.80;89.80;;;;;;4955629;28;20469;-49
2022/01/04 02:57:09;;;;;;;1.83;1.67;;;10.80;89.80;;;;;;4957472;28;20442;-49
2022/01/04 02:59:35;;;;;;;1.43;1.33;;;10.80;89.80;;;;;;4975199;28;20479;-49
2022/01/04 03:02:03;;;;;;;1.40;1.30;;;10.80;89.80;;;;;;4952868;28;20451;-49
2022/01/04 03:04:31;;;;;;;1.37;1.27;;;10.80;89.80;;;;;;4971285;28;20534;-49
2022/01/04 03:06:58;;;;;;;1.33;1.20;;;10.80;89.80;;;;;;4956517;28;20456;-49
2022/01/04 03:09:24;;;;;;;1.17;1.07;;;10.80;89.80;;;;;;4954219;28;20493;-49
2022/01/04 03:11:51;;;;;;;2.93;1.57;;;10.80;89.80;;;;;;4952894;28;20463;-49
2022/01/04 03:14:18;;;;;;;1.50;1.40;;;10.90;89.80;;;;;;4967178;28;20458;-49
2022/01/04 03:16:46;;;;;;;1.30;1.20;;;10.90;89.80;;;;;;4955768;28;20538;-49
2022/01/04 03:19:12;;;;;;;1.47;1.37;;;10.90;89.80;;;;;;4956231;28;20491;-49
2022/01/04 03:21:42;;;;;;;1.87;1.50;;;10.90;89.80;;;;;;4964945;28;20558;-50
2022/01/04 03:24:11;;;;;;;2.00;1.40;;;10.90;89.80;;;;;;4957394;28;20466;-49
2022/01/04 03:26:39;;;;;;;1.50;1.40;;;11.00;89.80;;;;;;4956119;28;20557;-48
2022/01/04 03:29:07;;;;;;;1.63;1.53;;;11.00;89.80;;;;;;4957711;28;20466;-49
2022/01/04 03:31:35;;;;;;;1.50;1.40;;;11.00;89.80;;;;;;4951483;28;20467;-49
2022/01/04 03:34:02;;;;;;;2.57;2.37;;;11.00;89.80;;;;;;4957154;28;20450;-49
2022/01/04 03:36:29;;;;;;;1.70;1.60;;;11.10;89.80;;;;;;4952886;28;21034;-48
2022/01/04 03:38:57;;;;;;;2.80;2.00;;;11.10;89.80;;;;;;4953893;28;20487;-48
2022/01/04 03:41:26;;;;;;;3.17;1.47;;;11.00;89.80;;;;;;4968848;28;20467;-49
2022/01/04 03:43:54;;;;;;;2.00;1.30;;;11.10;89.80;;;;;;4948564;28;20463;-49
2022/01/04 03:46:21;;;;;;;1.40;1.30;;;11.10;89.80;;;;;;4940370;28;20459;-49
2022/01/04 03:48:48;;;;;;;1.77;1.60;;;11.10;89.80;;;;;;4955939;28;20477;-49
2022/01/04 03:51:15;;;;;;;2.10;1.40;;;11.10;89.80;;;;;;4948404;28;20483;-49
2022/01/04 03:53:42;;;;;;;1.67;1.57;;;11.10;89.80;;;;;;4954794;28;21029;-50
2022/01/04 03:56:09;;;;;;;2.10;1.40;;;11.10;89.80;;;;;;4951971;28;20976;-45
2022/01/04 03:58:35;;;;;;;1.40;1.30;;;11.10;89.80;;;;;;4948421;28;20496;-45
2022/01/04 04:01:03;;;;;;;1.10;0.93;;;11.10;89.80;;;;;;4951065;28;20464;-49
2022/01/04 04:03:31;;;;;;;1.40;1.30;;;11.10;89.80;;;;;;4957323;28;20470;-49
2022/01/04 04:05:58;;;;;;;1.40;1.30;;;11.10;89.80;;;;;;4954354;28;20455;-49
2022/01/04 04:08:26;;;;;;;1.83;1.73;;;11.20;89.80;;;;;;4956145;28;20470;-49
2022/01/04 04:10:53;;;;;;;1.20;1.10;;;11.10;89.80;;;;;;4956068;28;20989;-49
2022/01/04 04:13:20;;;;;;;1.57;1.13;;;11.10;89.80;;;;;;4952673;28;20475;-48
2022/01/04 04:15:47;;;;;;;1.10;1.10;;;11.10;89.80;;;;;;4956055;28;20478;-49
2022/01/04 04:18:14;;;;;;;2.10;1.07;;;11.10;89.80;;;;;;4956367;28;20466;-48
2022/01/04 04:20:42;;;;;;;1.23;1.13;;;11.10;89.80;;;;;;4946552;28;20987;-49
2022/01/04 04:23:10;;;;;;;1.53;1.30;;;11.10;89.80;;;;;;4951017;28;20502;-49
2022/01/04 04:25:37;;;;;;;1.20;1.10;;;11.10;89.80;;;;;;4968759;28;20569;-48
2022/01/04 04:28:04;;;;;;;1.10;1.10;;;11.10;89.80;;;;;;4958797;28;20961;-49
2022/01/04 04:30:32;;;;;;;1.47;1.20;;;11.10;89.80;;;;;;4957597;28;20484;-48
2022/01/04 04:32:58;;;;;;;1.30;1.20;;;11.10;89.80;;;;;;4956432;28;20451;-49
2022/01/04 04:35:26;;;;;;;2.70;0.90;;;11.10;89.80;;;;;;4955205;28;21027;-49
2022/01/04 04:37:53;;;;;;;0.80;0.80;;;11.10;89.80;;;;;;4952612;28;20899;-48
2022/01/04 04:40:19;;;;;;;3.40;1.43;;;11.10;89.80;;;;;;4967739;28;20723;-48
2022/01/04 04:42:47;;;;;;;1.40;1.30;;;11.10;89.80;;;;;;4951427;28;20466;-48
2022/01/04 04:45:13;;;;;;;0.90;0.90;;;11.00;89.80;;;;;;4955006;28;20942;-49
2022/01/04 04:47:40;;;;;;;1.47;1.00;;;11.00;89.80;;;;;;4949099;28;20905;-49
2022/01/04 04:50:08;;;;;;;0.97;0.90;;;11.00;89.80;;;;;;4954791;28;20478;-48
2022/01/04 04:52:35;;;;;;;1.53;1.07;;;11.10;89.80;;;;;;4953837;28;20455;-48
2022/01/04 04:55:06;;;;;;;2.93;1.33;;;11.10;89.80;;;;;;4971373;28;20467;-49
2022/01/04 04:57:33;;;;;;;1.17;1.00;;;11.10;89.80;;;;;;4954928;28;20475;-48
2022/01/04 05:00:00;;;;;;;1.33;1.23;;;11.10;89.80;;;;;;4952238;28;20490;-49
2022/01/04 05:02:27;;;;;;;0.70;0.70;;;11.10;89.80;;;;;;4954113;28;20455;-49
2022/01/04 05:04:54;;;;;;;0.83;0.83;;;11.10;89.80;;;;;;4963151;28;20523;-49
2022/01/04 05:07:21;;;;;;;1.83;1.10;;;11.10;89.80;;;;;;4954271;28;20469;-49
2022/01/04 05:09:47;;;;;;;1.27;1.13;;;11.10;89.80;;;;;;4957437;28;20473;-49
2022/01/04 05:12:15;;;;;;;1.20;1.10;;;11.10;89.80;;;;;;4956852;28;20466;-48
2022/01/04 05:14:45;;;;;;;1.13;1.03;;;11.10;89.80;;;;;;4955156;28;20458;-48
2022/01/04 05:17:17;;;;;;;1.07;1.07;;;11.10;89.80;;;;;;4957656;28;20458;-48
2022/01/04 05:19:44;;;;;;;1.33;1.10;;;11.10;89.80;;;;;;4959622;28;20550;-48
2022/01/04 05:22:11;;;;;;;1.63;0.80;;;11.00;89.80;;;;;;4955831;28;20467;-48
2022/01/04 05:24:37;;;;;;;1.43;0.77;;;11.10;89.80;;;;;;4959266;28;20952;-48
2022/01/04 05:27:05;;;;;;;1.13;0.80;;;11.10;89.80;;;;;;4951831;28;20995;-48
2022/01/04 05:29:32;;;;;;;1.10;1.07;;;11.10;89.80;;;;;;4955944;28;20462;-49
2022/01/04 05:32:00;;;;;;;1.23;1.13;;;11.10;89.80;;;;;;4959537;28;20463;-48
2022/01/04 05:34:27;;;;;;;2.10;1.20;;;11.10;89.80;;;;;;4951454;28;21034;-49
2022/01/04 05:36:54;;;;;;;0.70;0.70;;;11.10;89.80;;;;;;4940258;28;20474;-48
2022/01/04 05:39:21;;;;;;;0.90;0.80;;;11.10;89.80;;;;;;4950887;28;20494;-48
2022/01/04 05:41:47;;;;;;;1.03;1.03;;;11.10;89.80;;;;;;4955159;28;20620;-48
2022/01/04 05:44:15;;;;;;;2.40;1.00;;;11.00;89.80;;;;;;4955036;28;20459;-48
2022/01/04 05:46:42;;;;;;;1.10;0.90;;;11.00;89.80;;;;;;4954759;28;20470;-48
2022/01/04 05:49:09;;;;;;;2.10;1.07;;;11.10;89.80;;;;;;4954677;28;20778;-49
2022/01/04 05:51:36;;;;;;;1.00;0.90;;;11.00;89.80;;;;;;4952068;28;20459;-48
2022/01/04 05:54:03;;;;;;;1.30;1.20;;;11.10;89.80;;;;;;4957289;28;20466;-49
2022/01/04 05:56:30;;;;;;;1.70;1.20;;;11.10;89.80;;;;;;4956823;28;20553;-49
2022/01/04 05:58:57;;;;;;;1.63;1.00;;;11.10;89.80;;;;;;4972941;28;20489;-49
2022/01/04 06:01:24;;;;;;;2.77;1.20;;;11.10;89.80;;;;;;4950128;28;20562;-49
2022/01/04 06:03:51;;;;;;;1.83;1.03;;;11.10;89.80;;;;;;4959635;28;20447;-49
2022/01/04 06:06:19;;;;;;;0.80;0.70;;;11.10;89.80;;;;;;4954897;28;20447;-48
2022/01/04 06:08:46;;;;;;;1.23;1.17;;;11.10;89.80;;;;;;4958491;28;20538;-48
2022/01/04 06:11:31;;;;;;;1.30;1.00;;;11.10;89.80;;;;;;4968264;28;20462;-48
2022/01/04 06:16:46;;;;;;;0.80;0.70;;;11.10;89.80;;;;;;4951921;28;20463;-48
2022/01/04 06:19:13;;;;;;;0.80;0.80;;;11.10;89.80;;;;;;4953904;28;20501;-48
2022/01/04 06:21:39;;;;;;;1.03;1.00;;;11.10;89.80;;;;;;4957677;28;20451;-48
2022/01/04 06:24:06;;;;;;;1.33;0.90;;;11.10;89.80;;;;;;4954653;28;20482;-48
2022/01/04 06:26:33;;;;;;;1.20;0.80;;;11.10;89.80;;;;;;4957104;28;20986;-48
2022/01/04 06:29:01;;;;;;;0.70;0.57;;;11.10;89.80;;;;;;4951536;28;20461;-48
2022/01/04 06:31:29;;;;;;;1.53;1.17;;;11.00;89.80;;;;;;4950688;28;20463;-48
2022/01/04 06:33:56;;;;;;;1.13;1.03;;;11.00;89.80;;;;;;4954713;28;20483;-48
2022/01/04 06:36:23;;;;;;;1.83;0.90;;;11.00;89.80;;;;;;4970311;28;20455;-48
2022/01/04 06:38:50;;;;;;;0.60;0.57;;;11.00;89.80;;;;;;4954021;28;20455;-49
2022/01/04 06:41:17;;;;;;;1.13;0.97;;;11.00;89.80;;;;;;4958492;28;20821;-48
2022/01/04 06:43:43;;;;;;;2.40;2.03;;;11.00;89.80;;;;;;4970707;28;20471;-48
2022/01/04 06:46:11;;;;;;;1.70;1.60;;;11.10;89.80;;;;;;4955252;28;20465;-48
2022/01/04 06:48:38;;;;;;;1.47;1.37;;;11.10;89.80;;;;;;4962244;28;20517;-48
2022/01/04 06:51:07;;;;;;;1.13;0.90;;;11.10;89.80;;;;;;4955827;28;20934;-48
2022/01/04 06:53:34;;;;;;;1.07;0.63;;;11.00;89.80;;;;;;4953115;28;20960;-48
2022/01/04 06:56:01;;;;;;;1.23;0.90;;;11.00;89.80;;;;;;4950410;28;20477;-48
2022/01/04 06:58:28;;;;;;;0.50;0.40;;;10.90;89.80;;;;;;4948774;28;20476;-48
2022/01/04 07:00:54;;;;;;;0.50;0.30;;;10.90;89.80;;;;;;4951115;28;20521;-48
2022/01/04 07:03:27;;;;;;;0.60;0.40;;;10.80;89.80;;;;;;4950185;28;20455;-48
2022/01/04 07:05:55;;;;;;;0.50;0.50;;;10.70;89.80;;;;;;4945252;28;20466;-48
2022/01/04 07:08:22;;;;;;;1.00;1.00;;;10.70;89.80;;;;;;4948566;28;20482;-49
2022/01/04 07:10:49;;;;;;;0.70;0.50;;;10.60;89.80;;;;;;4955073;28;20459;-48
2022/01/04 07:13:16;;;;;;;0.70;0.50;;;10.60;89.80;;;;;;4950943;28;20477;-48
2022/01/04 07:15:47;;;;;;;1.10;0.53;;;10.60;89.80;;;;;;4955549;28;20463;-48
2022/01/04 07:18:13;;;;;;;1.37;0.83;;;10.60;89.80;;;;;;4950029;28;20887;-47
2022/01/04 07:20:40;;;;;;;0.80;0.60;;;10.50;89.80;;;;;;4970659;28;20491;-47
2022/01/04 07:23:07;;;;;;;0.83;0.50;;;10.50;89.70;;;;;;4962808;28;20831;-48
2022/01/04 07:25:34;;;;;;;2.17;0.73;;;10.40;89.80;;;;;;4951215;28;20475;-47
2022/01/04 07:28:00;;;;;;;2.00;0.50;;;10.40;89.80;;;;;;4949623;28;20540;-47
2022/01/04 07:30:27;;;;;;;1.53;0.57;;;10.40;89.80;;;;;;4952008;28;20466;-48
2022/01/04 07:32:54;;;;;;;0.63;0.60;;;10.40;89.80;;;;;;4949227;28;20545;-48
2022/01/04 07:35:21;;;;;;;1.10;1.00;;;10.40;89.70;;;;;;4947218;28;20467;-48
2022/01/04 07:37:48;;;;;;;0.70;0.70;;;10.30;89.80;;;;;;4950864;28;20490;-48
2022/01/04 07:40:14;;;;;;;0.50;0.40;;;10.20;89.80;;;;;;4949484;28;20499;-48
2022/01/04 07:42:41;;;;;;;0.60;0.60;;;10.30;89.60;;;;;;4955344;28;20450;-49
2022/01/04 07:45:08;;;;;;;0.70;0.40;;;10.30;89.00;;;;;;4953073;28;20506;-49
2022/01/04 07:47:36;;;;;;;0.40;0.30;;;10.20;89.40;;;;;;4951079;28;20463;-48
2022/01/04 07:50:03;;;;;;;0.40;0.30;;;10.20;89.70;;;;;;4950954;28;20465;-48
2022/01/04 07:52:30;;;;;;;0.70;0.50;;;10.10;89.60;;;;;;4949028;28;20459;-48
2022/01/04 07:54:57;;;;;;;0.93;0.50;;;10.10;89.50;;;;;;4949725;28;20463;-48
2022/01/04 07:57:24;;;;;;;0.47;0.47;;;10.10;89.30;;;;;;4947803;28;20866;-48
2022/01/04 07:59:50;;;;;;;0.47;0.40;;;10.10;89.30;;;;;;4950800;28;21032;-48
2022/01/04 08:02:17;;;;;;;0.93;0.70;;;10.00;89.40;;;;;;4949455;28;20878;-48
2022/01/04 08:04:46;;;;;;;1.17;0.87;;;10.00;89.50;;;;;;4956091;28;20498;-48
2022/01/04 08:07:13;;;;;;;0.60;0.60;;;10.00;89.40;;;;;;4951957;28;20461;-49
2022/01/04 08:09:41;;;;;;;1.27;0.90;;;10.00;89.60;;;;;;4947210;28;20558;-48
2022/01/04 08:12:08;;;;;;;0.97;0.70;;;9.90;89.70;;;;;;4947787;28;20475;-48
2022/01/04 08:14:35;;;;;;;1.23;0.57;;;9.90;89.80;;;;;;4950886;28;20467;-48
2022/01/04 08:17:04;;;;;;;2.03;1.03;;;9.90;89.80;;;;;;4948869;28;20473;-48
2022/01/04 08:19:31;;;;;;;0.80;0.50;;;9.90;89.80;;;;;;4945497;28;20613;-48
2022/01/04 08:21:59;;;;;;;1.13;0.60;;;9.90;89.80;;;;;;4948693;28;20512;-48
2022/01/04 08:24:26;;;;;;;0.60;0.60;;;9.90;89.80;;;;;;4947389;28;20522;-48
2022/01/04 08:26:55;;;;;;;0.40;0.40;;;9.80;89.80;;;;;;4940476;28;20471;-48
2022/01/04 08:29:22;;;;;;;0.80;0.70;;;9.90;89.80;;;;;;4948004;28;20569;-48
2022/01/04 08:31:48;;;;;;;0.73;0.50;;;9.90;89.70;;;;;;4947226;28;20484;-48
2022/01/04 08:34:15;;;;;;;3.37;1.00;;;9.90;89.80;;;;;;4942593;28;20478;-48
2022/01/04 08:36:43;;;;;;;1.67;1.13;;;9.80;89.80;;;;;;4951953;28;20467;-48
2022/01/04 08:39:14;;;;;;;2.67;0.93;;;9.80;89.70;;;;;;4954178;28;20533;-48
2022/01/04 08:41:45;;;;;;;1.00;0.90;;;9.80;89.80;;;;;;4951351;28;20485;-48
2022/01/04 08:44:15;;;;;;;1.07;0.70;;;9.80;89.80;;;;;;4955603;28;20458;-48
2022/01/04 08:46:50;;;;;;;1.13;0.97;;;9.80;89.80;;;;;;4969010;28;20473;-48
2022/01/04 08:49:17;;;;;;;1.23;1.10;;;9.70;89.80;;;;;;4955643;28;20447;-48
2022/01/04 08:51:44;;;;;;;1.53;0.80;;;9.70;89.80;;;;;;4950700;28;20473;-48
2022/01/04 08:54:14;;;;;;;1.13;1.03;;;9.80;89.80;;;;;;4954541;28;20466;-48
2022/01/04 08:56:41;;;;;;;0.83;0.67;;;9.70;89.80;;;;;;4957020;28;20514;-48
2022/01/04 08:59:09;;;;;;;2.47;1.20;;;9.70;89.80;;;;;;4954229;28;20478;-48
2022/01/04 09:01:37;;;;;;;0.60;0.57;;;9.70;89.80;;;;;;4957119;28;20521;-48
2022/01/04 09:04:06;;;;;;;1.43;0.70;;;9.90;89.80;;;;;;4954269;28;20521;-48
2022/01/04 09:06:34;;;;;;;2.50;0.90;;;9.90;89.80;;;;;;4970956;28;20474;-48
2022/01/04 09:09:04;;;;;;;1.30;1.10;;;9.90;89.80;;;;;;4947186;28;20454;-48
2022/01/04 09:11:31;;;;;;;3.47;1.20;;;9.80;89.80;;;;;;4960242;28;20454;-48
2022/01/04 09:14:54;;;;;;;1.60;1.30;;;9.80;89.80;;;;;;4972724;28;20838;-49
2022/01/04 09:19:35;;;;;;;2.40;1.20;;;9.70;89.80;;;;;;4949210;28;21003;-48
2022/01/04 09:22:03;;;;;;;1.63;1.03;;;9.80;89.80;;;;;;4947952;28;20481;-45
2022/01/04 09:24:31;;;;;;;1.63;0.80;;;9.80;89.80;;;;;;4957047;28;20853;-45
2022/01/04 09:26:59;;;;;;;1.33;0.80;;;9.80;89.80;;;;;;4967538;28;20458;-44
2022/01/04 09:29:26;;;;;;;1.10;0.73;;;9.90;89.80;;;;;;4951694;28;21036;-44
2022/01/04 09:31:55;;;;;;;1.17;0.80;;;9.90;89.80;;;;;;4953221;28;20468;-45
2022/01/04 09:34:22;;;;;;;1.47;0.53;;;9.90;89.80;;;;;;4954045;28;20455;-45
2022/01/04 09:36:57;;;;;;;0.60;0.40;;;9.90;89.80;;;;;;4953990;28;20458;-45
2022/01/04 09:39:25;;;;;;;0.73;0.60;;;9.90;89.40;;;;;;4951258;28;20736;-45
2022/01/04 09:41:55;;;;;;;0.60;0.50;;;9.80;89.70;;;;;;4953204;28;20491;-45
2022/01/04 09:44:22;;;;;;;1.23;0.70;;;9.80;89.80;;;;;;4953515;28;20450;-47
2022/01/04 09:46:49;;;;;;;0.50;0.50;;;9.70;89.80;;;;;;4961388;28;20450;-48
2022/01/04 09:49:16;;;;;;;0.93;0.50;;;9.80;89.80;;;;;;4955055;28;20451;-48
2022/01/04 09:51:51;;;;;;;1.50;0.87;;;9.80;89.70;;;;;;4957625;28;20959;-48
2022/01/04 09:54:22;;;;;;;0.60;0.60;;;9.80;89.60;;;;;;4950590;28;20832;-48
2022/01/04 09:56:49;;;;;;;0.90;0.63;;;9.80;89.30;;;;;;4953908;28;20468;-48
2022/01/04 09:59:17;;;;;;;0.70;0.60;;;9.70;89.60;;;;;;4951769;28;20819;-48
2022/01/04 10:01:50;;;;;;;0.70;0.50;;;9.70;89.80;;;;;;4953022;28;20486;-47
2022/01/04 10:04:23;;;;;;;1.50;0.90;;;9.60;89.70;;;;;;4950962;28;20867;-47
2022/01/04 10:07:08;;;;;;;0.40;0.40;;;9.60;89.60;;;;;;4949855;28;20535;-48
2022/01/04 10:09:45;;;;;;;3.80;0.60;;;9.70;89.30;;;;;;4956090;28;20463;-48
2022/01/04 10:12:17;;;;;;;0.60;0.60;;;9.60;89.60;;;;;;4948093;28;20465;-48
2022/01/04 10:14:50;;;;;;;2.17;0.67;;;9.60;89.20;;;;;;4948407;28;20467;-48
2022/01/04 10:17:23;;;;;;;2.40;0.53;;;9.60;89.40;;;;;;4950448;28;21008;-48
2022/01/04 10:19:57;;;;;;;1.03;0.50;;;9.60;89.40;;;;;;4965118;28;20462;-49
2022/01/04 10:22:30;;;;;;;0.40;0.40;;;9.60;89.30;;;;;;4952558;28;20995;-48
2022/01/04 10:25:01;;;;;;;0.50;0.50;;;9.60;89.00;;;;;;4969429;28;20459;-48
2022/01/04 10:27:32;;;;;;;3.13;0.80;;;9.60;88.30;;;;;;4954318;28;20825;-49
2022/01/04 10:30:30;;;;;;;0.70;0.40;;;9.50;88.90;;;;;;4950470;28;20467;-48
2022/01/04 10:33:14;;;;;;;0.60;0.50;;;9.50;89.10;;;;;;4956720;28;20531;-48
2022/01/04 10:35:52;;;;;;;2.00;0.80;;;9.50;88.80;;;;;;4970796;28;20945;-47
2022/01/04 10:38:20;;;;;;;0.50;0.50;;;9.40;89.40;;;;;;4944731;28;21054;-48
2022/01/04 10:41:09;;;;;;;0.80;0.60;;;9.40;89.70;;;;;;4956321;28;20490;-47
2022/01/04 10:43:43;;;;;;;0.70;0.70;;;9.40;88.80;;;;;;4960875;28;20459;-48
2022/01/04 10:46:18;;;;;;;0.97;0.40;;;9.40;89.00;;;;;;4956512;28;20454;-47
2022/01/04 10:48:47;;;;;;;0.47;0.40;;;9.40;88.50;;;;;;4952688;28;20490;-48
2022/01/04 10:51:14;;;;;;;1.27;0.70;;;9.40;88.00;;;;;;4952919;28;20830;-48
2022/01/04 10:53:47;;;;;;;2.60;0.73;;;9.40;88.00;;;;;;4951580;28;20834;-49
2022/01/04 10:56:26;;;;;;;0.50;0.50;;;9.30;88.30;;;;;;4968935;28;20459;-47
2022/01/04 10:58:56;;;;;;;3.93;0.50;;;9.30;87.90;;;;;;4959525;28;20459;-49
2022/01/04 11:01:27;;;;;;;0.70;0.40;;;9.30;88.30;;;;;;4955670;28;20485;-47
2022/01/04 11:03:56;;;;;;;0.60;0.60;;;9.30;88.10;;;;;;4969473;28;20540;-47
2022/01/04 11:06:30;;;;;;;0.80;0.40;;;9.30;87.90;;;;;;4952131;28;20549;-47
2022/01/04 11:08:58;;;;;;;0.40;0.30;;;9.30;87.80;;;;;;4954356;28;20455;-48
2022/01/04 11:11:26;;;;;;;0.50;0.37;;;9.20;87.70;;;;;;4967230;28;20470;-47
2022/01/04 11:13:58;;;;;;;0.60;0.60;;;9.20;88.10;;;;;;4957781;28;20562;-47
2022/01/04 11:16:26;;;;;;;0.67;0.67;;;9.20;88.20;;;;;;4945548;28;20482;-48
2022/01/04 11:18:56;;;;;;;0.70;0.40;;;9.20;88.20;;;;;;4950551;28;20796;-47
2022/01/04 11:21:35;;;;;;;0.70;0.67;;;9.20;88.20;;;;;;4951080;28;21115;-49
2022/01/04 11:24:05;;;;;;;0.40;0.30;;;9.20;88.30;;;;;;4953799;28;21039;-47
2022/01/04 11:26:39;;;;;;;0.40;0.37;;;9.20;88.40;;;;;;4949583;28;20471;-48
2022/01/04 11:29:06;;;;;;;0.97;0.70;;;9.20;88.50;;;;;;4950513;28;20547;-48
2022/01/04 11:31:37;;;;;;;1.00;0.90;;;9.20;87.70;;;;;;4947180;28;20485;-47
2022/01/04 11:34:06;;;;;;;0.97;0.60;;;9.20;87.70;;;;;;4954335;28;20869;-48
2022/01/04 11:37:01;;;;;;;1.07;0.50;;;9.20;88.10;;;;;;4949751;28;20524;-47
2022/01/04 11:39:32;;;;;;;1.07;0.73;;;9.20;88.30;;;;;;4947164;28;20479;-47
2022/01/04 11:42:07;;;;;;;1.27;0.60;;;9.20;88.20;;;;;;4949199;28;20572;-48
2022/01/04 11:44:43;;;;;;;0.80;0.70;;;9.10;87.90;;;;;;4958466;28;20918;-47
2022/01/04 11:47:26;;;;;;;2.13;0.70;;;9.10;87.80;;;;;;4946704;28;21355;-48
2022/01/04 11:50:13;;;;;;;0.87;0.70;;;9.10;88.20;;;;;;4948610;28;21338;-48
2022/01/04 11:52:44;;;;;;;0.60;0.60;;;9.10;88.20;;;;;;4962547;28;20458;-49
2022/01/04 11:55:15;;;;;;;0.50;0.40;;;9.10;88.30;;;;;;4945899;28;20839;-49
2022/01/04 11:57:42;;;;;;;0.83;0.50;;;9.10;88.50;;;;;;4950374;28;20474;-50
2022/01/04 12:00:09;;;;;;;0.60;0.50;;;9.10;88.30;;;;;;4952745;28;20545;-49
2022/01/04 12:02:38;;;;;;;0.60;0.60;;;9.10;88.30;;;;;;4947301;28;20464;-49
2022/01/04 12:05:24;;;;;;;0.50;0.50;;;9.10;88.40;;;;;;4949351;28;20872;-49
2022/01/04 12:07:57;;;;;;;0.53;0.53;;;9.10;88.60;;;;;;4944192;28;20473;-48
2022/01/04 12:10:25;;;;;;;0.80;0.70;;;9.10;88.60;;;;;;4961155;28;20452;-48
2022/01/04 12:12:59;;;;;;;1.63;0.87;;;9.10;88.60;;;;;;4947621;28;20467;-47
2022/01/04 12:15:35;;;;;;;0.70;0.50;;;9.10;88.60;;;;;;4942903;28;20656;-48
2022/01/04 12:18:22;;;;;;;0.60;0.60;;;9.10;88.40;;;;;;4948261;28;20463;-48
2022/01/04 12:21:04;;;;;;;0.87;0.73;;;9.10;88.70;;;;;;4948409;28;20496;-48
2022/01/04 12:23:59;;;;;;;0.70;0.60;;;9.10;88.90;;;;;;4949086;28;20485;-48
2022/01/04 12:26:33;;;;;;;1.03;0.93;;;9.10;89.00;;;;;;4950755;28;20489;-48
2022/01/04 12:29:02;;;;;;;1.53;1.00;;;9.10;89.00;;;;;;4944765;28;20496;-48
2022/01/04 12:31:33;;;;;;;1.27;0.90;;;9.10;89.00;;;;;;4948922;28;20492;-48
2022/01/04 12:34:07;;;;;;;3.63;1.30;;;9.10;89.00;;;;;;4949569;28;20463;-48
2022/01/04 12:36:38;;;;;;;0.93;0.77;;;9.10;88.70;;;;;;4941948;28;20549;-48
2022/01/04 12:39:06;;;;;;;0.70;0.70;;;9.20;88.40;;;;;;4961139;28;20546;-47
2022/01/04 12:41:35;;;;;;;1.13;1.00;;;9.20;88.50;;;;;;4949748;28;20499;-48
2022/01/04 12:44:12;;;;;;;1.40;1.30;;;9.10;88.70;;;;;;4942441;28;20462;-48
2022/01/04 12:46:45;;;;;;;0.80;0.60;;;9.10;88.80;;;;;;4948512;28;20458;-48
2022/01/04 12:49:15;;;;;;;0.77;0.60;;;9.20;88.10;;;;;;4953182;28;20464;-47
2022/01/04 12:51:47;;;;;;;1.30;0.50;;;9.10;88.20;;;;;;4945921;28;20487;-48
2022/01/04 12:54:16;;;;;;;0.60;0.60;;;9.10;88.40;;;;;;4947041;28;20545;-47
2022/01/04 12:56:53;;;;;;;1.30;0.90;;;9.10;88.70;;;;;;4949177;28;21003;-48
2022/01/04 12:59:23;;;;;;;1.10;0.90;;;9.10;88.80;;;;;;4946700;28;20473;-48
2022/01/04 13:02:10;;;;;;;1.97;0.80;;;9.10;89.00;;;;;;4955825;28;20517;-48
2022/01/04 13:04:39;;;;;;;0.67;0.60;;;9.10;89.00;;;;;;4951949;28;20445;-48
2022/01/04 13:07:15;;;;;;;0.83;0.83;;;9.10;87.70;;;;;;4951389;28;20481;-48
2022/01/04 13:09:41;;;;;;;0.63;0.63;;;9.00;87.80;;;;;;4940986;28;20662;-48